Time;durP1;ratioP1;P1;durP2;ratioP2;P2;SDS_P1;SDS_P2;PMS_P1;PMS_P2;Temp;Humidity;BMP_temperature;BMP_pressure;BME280_temperature;BME280_humidity;BME280_pressure;Samples;Min_cycle;Max_cycle;Signal;HPM_P1;HPM_P2
2021/04/12 00:00:48;;;;;;;3.00;2.00;;;;;;;4.10;86.40;98935.84;5029515;28;20022;-71
2021/04/12 00:03:25;;;;;;;2.15;1.90;;;;;;;4.14;86.43;98953.31;5018622;28;20109;-71
2021/04/12 00:06:12;;;;;;;2.80;2.03;;;;;;;4.04;86.86;98943.69;5031517;28;20042;-71
2021/04/12 00:08:46;;;;;;;3.05;2.05;;;;;;;3.98;85.84;98949.66;5027647;28;20474;-71
2021/04/12 00:11:30;;;;;;;2.60;2.10;;;;;;;3.93;87.25;98948.31;5021960;28;20025;-71
2021/04/12 00:14:06;;;;;;;3.50;2.50;;;;;;;3.94;87.49;98943.81;5030774;28;20057;-72
2021/04/12 00:17:00;;;;;;;3.13;2.33;;;;;;;3.91;87.91;98942.28;5031079;28;20026;-72
2021/04/12 00:19:35;;;;;;;3.92;3.10;;;;;;;3.92;87.54;98943.13;5013728;28;20095;-72
2021/04/12 00:22:07;;;;;;;3.67;2.70;;;;;;;3.89;87.04;98954.13;5034200;28;20029;-72
2021/04/12 00:24:50;;;;;;;3.72;2.60;;;;;;;3.83;87.03;98949.41;5022921;28;20076;-71
2021/04/12 00:27:31;;;;;;;3.95;2.70;;;;;;;3.81;86.78;98957.59;5028216;28;20513;-70
2021/04/12 00:30:09;;;;;;;3.60;2.72;;;;;;;3.72;86.96;98954.03;5014473;28;20029;-71
2021/04/12 00:32:50;;;;;;;2.53;2.25;;;;;;;3.71;86.60;98963.03;5032004;28;20494;-71
2021/04/12 00:35:22;;;;;;;4.22;2.72;;;;;;;3.74;86.98;98965.38;5031560;28;20112;-72
2021/04/12 00:38:16;;;;;;;3.58;2.78;;;;;;;3.69;86.27;98957.03;5024930;28;20075;-71
2021/04/12 00:40:44;;;;;;;3.97;2.45;;;;;;;3.69;86.05;98967.72;5028309;28;20161;-72
2021/04/12 00:43:36;;;;;;;4.03;2.78;;;;;;;3.66;86.87;98961.81;5014196;28;20025;-70
2021/04/12 00:46:29;;;;;;;5.13;2.97;;;;;;;3.71;86.71;98973.72;5019612;28;20037;-72
2021/04/12 00:49:05;;;;;;;3.80;3.00;;;;;;;3.61;86.75;98985.53;5035530;28;20437;-71
2021/04/12 00:51:39;;;;;;;5.97;3.80;;;;;;;3.59;87.00;98988.38;5029716;28;20035;-71
2021/04/12 00:54:15;;;;;;;6.10;3.90;;;;;;;3.45;87.51;98986.22;5033267;28;20025;-72
2021/04/12 00:56:49;;;;;;;6.57;4.18;;;;;;;3.39;87.51;98994.88;5024412;28;20030;-72
2021/04/12 00:59:44;;;;;;;5.05;3.90;;;;;;;3.49;87.20;99022.38;5014260;28;20113;-70
2021/04/12 01:02:22;;;;;;;6.65;4.00;;;;;;;3.43;87.15;99044.38;5034721;28;20044;-72
2021/04/12 01:04:50;;;;;;;5.38;3.60;;;;;;;3.51;87.25;99049.78;5039939;28;20057;-71
2021/04/12 01:07:40;;;;;;;5.32;3.88;;;;;;;3.48;87.21;99060.81;5027068;28;20030;-72
2021/04/12 01:10:21;;;;;;;4.78;3.60;;;;;;;3.36;87.39;99044.16;5024958;28;20033;-73
2021/04/12 01:13:06;;;;;;;5.38;3.95;;;;;;;3.38;87.48;99049.34;5033972;28;20395;-72
2021/04/12 01:15:50;;;;;;;4.55;3.60;;;;;;;3.37;86.99;99045.00;5034795;28;20056;-73
2021/04/12 01:18:42;;;;;;;4.95;3.40;;;;;;;3.39;87.51;99061.72;5028064;28;20480;-72
2021/04/12 01:21:45;;;;;;;4.38;3.05;;;;;;;3.41;87.58;99070.44;5032495;28;20533;-71
2021/04/12 01:24:38;;;;;;;6.53;4.13;;;;;;;3.38;86.88;99076.06;5029420;28;20040;-72
2021/04/12 01:27:27;;;;;;;5.47;3.50;;;;;;;3.28;86.92;99066.28;5021560;28;20468;-72
2021/04/12 01:30:22;;;;;;;6.15;3.97;;;;;;;3.29;85.48;99083.19;5025024;28;20044;-70
2021/04/12 01:33:09;;;;;;;5.22;3.70;;;;;;;3.23;86.70;99089.13;5013863;28;20037;-70
2021/04/12 01:35:57;;;;;;;5.43;3.88;;;;;;;3.16;86.69;99072.00;5023485;28;20025;-71
2021/04/12 01:38:42;;;;;;;5.68;3.90;;;;;;;3.02;86.59;99051.97;5003482;28;20522;-72
2021/04/12 01:41:24;;;;;;;6.18;4.03;;;;;;;3.17;86.71;99074.53;5024507;28;20033;-72
2021/04/12 01:44:23;;;;;;;5.85;4.20;;;;;;;3.11;86.70;99075.13;5033444;28;20084;-71
2021/04/12 01:47:12;;;;;;;7.30;3.92;;;;;;;3.20;86.76;99089.44;5033019;28;20387;-72
2021/04/12 01:52:21;;;;;;;5.75;3.88;;;;;;;3.12;87.63;99092.84;5107425;22;19943;-71
2021/04/12 01:55:08;;;;;;;5.07;3.90;;;;;;;3.13;87.48;99099.88;5091921;28;20059;-71
2021/04/12 01:57:42;;;;;;;5.00;3.42;;;;;;;3.08;87.25;99096.81;5083939;28;20039;-71
2021/04/12 02:00:31;;;;;;;4.97;3.40;;;;;;;2.99;87.33;99109.22;5074048;28;20591;-71
2021/04/12 02:03:26;;;;;;;5.05;3.65;;;;;;;2.88;86.87;99116.56;5075285;28;20060;-73
2021/04/12 02:05:54;;;;;;;6.43;3.63;;;;;;;2.81;87.49;99111.81;5074699;28;20449;-73
2021/04/12 02:08:30;;;;;;;4.78;3.20;;;;;;;2.73;86.95;99108.22;5085536;28;20037;-73
2021/04/12 02:11:12;;;;;;;5.97;3.70;;;;;;;2.81;86.63;99121.69;5089889;28;20030;-74
2021/04/12 02:14:05;;;;;;;5.38;3.65;;;;;;;2.78;86.59;99116.63;5092876;28;20362;-73
2021/04/12 02:16:43;;;;;;;12.20;4.10;;;;;;;2.85;87.40;99131.91;5083292;28;20098;-71
2021/04/12 02:19:36;;;;;;;6.55;3.78;;;;;;;2.84;86.77;99142.75;5083367;28;20028;-73
2021/04/12 02:22:41;;;;;;;6.15;4.00;;;;;;;2.85;86.44;99155.97;5054760;28;20041;-72
2021/04/12 02:25:50;;;;;;;6.18;3.83;;;;;;;2.89;86.84;99161.88;5060159;28;20035;-70
2021/04/12 02:28:33;;;;;;;6.10;4.05;;;;;;;2.99;87.14;99170.72;5072016;28;20451;-73
2021/04/12 02:31:21;;;;;;;6.35;4.22;;;;;;;2.92;87.02;99184.78;5077321;28;20078;-73
2021/04/12 02:33:56;;;;;;;6.28;4.18;;;;;;;2.88;87.34;99176.19;5071146;28;20038;-73
2021/04/12 02:37:06;;;;;;;7.10;4.55;;;;;;;2.91;87.75;99177.75;5071901;28;20032;-73
2021/04/12 02:40:08;;;;;;;6.95;4.10;;;;;;;2.93;87.59;99175.78;5065612;28;20032;-73
2021/04/12 02:43:06;;;;;;;7.38;4.45;;;;;;;2.92;88.07;99171.44;5070490;28;20104;-73
2021/04/12 02:45:57;;;;;;;10.90;4.60;;;;;;;2.90;87.60;99170.72;5078337;28;20020;-73
2021/04/12 02:48:40;;;;;;;6.32;4.25;;;;;;;2.92;87.75;99171.44;5058789;28;20049;-73
2021/04/12 02:51:47;;;;;;;6.15;4.05;;;;;;;2.98;88.06;99185.03;5067670;28;20035;-73
2021/04/12 02:54:39;;;;;;;5.50;3.95;;;;;;;2.92;87.33;99166.09;5047700;28;20498;-70
2021/04/12 02:57:41;;;;;;;7.00;4.68;;;;;;;2.95;87.70;99174.63;5075486;28;20612;-70
2021/04/12 03:00:31;;;;;;;8.48;5.45;;;;;;;2.90;88.27;99178.75;5073196;28;20110;-70
2021/04/12 03:03:34;;;;;;;8.95;4.78;;;;;;;3.02;87.50;99191.78;5062171;28;20033;-70
2021/04/12 03:06:24;;;;;;;7.32;4.30;;;;;;;2.99;87.03;99192.09;5052440;28;20057;-73
2021/04/12 03:09:25;;;;;;;8.50;4.60;;;;;;;2.94;87.58;99201.53;5056140;28;20246;-72
2021/04/12 03:12:09;;;;;;;7.03;4.65;;;;;;;2.92;87.50;99208.84;5066202;28;20094;-73
2021/04/12 03:14:50;;;;;;;8.07;5.30;;;;;;;2.92;87.48;99212.34;5052104;28;20455;-73
2021/04/12 03:17:37;;;;;;;8.05;5.30;;;;;;;2.89;87.49;99209.97;5085981;28;20028;-73
2021/04/12 03:20:19;;;;;;;8.23;4.90;;;;;;;2.69;87.62;99185.13;5086209;28;20063;-72
2021/04/12 03:23:15;;;;;;;7.07;4.80;;;;;;;2.88;87.80;99210.94;5079499;28;20074;-74
2021/04/12 03:25:52;;;;;;;8.73;5.15;;;;;;;2.85;87.88;99211.22;5086127;28;20123;-72
2021/04/12 03:28:30;;;;;;;9.77;5.22;;;;;;;2.85;87.72;99228.09;5096384;28;20024;-73
2021/04/12 03:31:01;;;;;;;6.60;4.18;;;;;;;2.85;87.58;99232.63;5073834;28;20040;-73
2021/04/12 03:33:48;;;;;;;6.93;4.70;;;;;;;2.93;87.74;99240.75;5073555;28;20273;-73
2021/04/12 03:36:27;;;;;;;7.30;4.30;;;;;;;2.93;88.06;99232.72;5075371;28;20086;-73
2021/04/12 03:39:15;;;;;;;7.45;4.45;;;;;;;2.92;87.85;99241.75;5079445;28;20119;-72
2021/04/12 03:42:19;;;;;;;10.55;4.75;;;;;;;2.85;88.02;99251.31;5062947;28;20067;-75
2021/04/12 03:45:02;;;;;;;8.75;4.72;;;;;;;2.87;87.50;99259.22;5068240;28;20047;-74
2021/04/12 03:47:44;;;;;;;6.50;4.18;;;;;;;2.82;87.74;99244.44;5064115;28;20032;-73
2021/04/12 03:50:35;;;;;;;9.90;4.60;;;;;;;2.80;87.62;99238.41;5064013;28;20033;-74
2021/04/12 03:53:18;;;;;;;7.22;4.32;;;;;;;2.88;87.66;99234.16;5070709;28;20040;-75
2021/04/12 03:56:05;;;;;;;6.90;4.75;;;;;;;2.78;88.14;99244.88;5076185;28;20435;-74
2021/04/12 03:59:00;;;;;;;8.82;4.25;;;;;;;2.80;87.76;99246.44;5073289;28;20029;-74
2021/04/12 04:02:18;;;;;;;9.18;4.97;;;;;;;2.80;87.60;99258.91;5059563;28;20021;-75
2021/04/12 04:05:00;;;;;;;7.78;4.97;;;;;;;2.76;87.70;99278.91;5041565;28;20044;-76
2021/04/12 04:07:54;;;;;;;8.90;5.18;;;;;;;2.68;87.35;99265.41;5075212;28;20111;-71
2021/04/12 04:10:56;;;;;;;7.60;5.07;;;;;;;2.74;87.62;99265.69;5064636;28;20666;-76
2021/04/12 04:13:28;;;;;;;6.80;4.72;;;;;;;2.71;87.22;99279.31;5072539;28;20059;-73
2021/04/12 04:16:14;;;;;;;11.98;5.30;;;;;;;2.70;87.30;99285.66;5074864;28;20024;-76
2021/04/12 04:18:39;;;;;;;10.38;5.40;;;;;;;2.67;87.60;99304.63;5059960;28;20059;-73
2021/04/12 04:21:16;;;;;;;10.57;5.25;;;;;;;2.62;87.64;99312.25;5068011;28;20519;-73
2021/04/12 04:24:03;;;;;;;7.15;4.63;;;;;;;2.57;87.97;99312.66;5058208;28;20055;-72
2021/04/12 04:26:35;;;;;;;11.13;5.40;;;;;;;2.70;87.83;99323.06;5057584;28;20078;-71
2021/04/12 04:29:15;;;;;;;9.00;5.20;;;;;;;2.72;87.79;99326.41;5069481;28;20037;-72
2021/04/12 04:32:13;;;;;;;9.32;4.80;;;;;;;2.70;87.68;99333.75;5059917;28;20074;-72
2021/04/12 04:34:57;;;;;;;8.63;4.57;;;;;;;2.70;88.13;99339.09;5072007;28;20509;-74
2021/04/12 04:37:50;;;;;;;7.32;4.53;;;;;;;2.70;87.83;99333.75;5057784;28;20024;-75
2021/04/12 04:40:40;;;;;;;7.18;4.45;;;;;;;2.69;87.62;99339.22;5070659;28;20067;-73
2021/04/12 04:43:16;;;;;;;11.35;5.22;;;;;;;2.69;87.90;99340.06;5067396;28;20389;-73
2021/04/12 04:46:08;;;;;;;7.15;4.45;;;;;;;2.63;87.44;99340.63;5059100;28;20024;-72
2021/04/12 04:49:09;;;;;;;8.82;4.80;;;;;;;2.69;87.59;99336.56;5068951;28;20036;-72
2021/04/12 04:51:40;;;;;;;7.60;4.60;;;;;;;2.69;87.60;99357.94;5024707;28;20065;-73
2021/04/12 04:54:14;;;;;;;8.20;4.78;;;;;;;2.68;87.95;99366.94;5054614;28;20036;-72
2021/04/12 04:56:55;;;;;;;7.82;5.07;;;;;;;2.60;87.75;99355.09;5066851;28;20428;-73
2021/04/12 04:59:37;;;;;;;8.85;5.28;;;;;;;2.69;88.06;99376.63;5064354;28;20029;-75
2021/04/12 05:02:36;;;;;;;9.75;5.47;;;;;;;2.70;87.52;99375.63;5072222;28;20037;-73
2021/04/12 05:05:16;;;;;;;9.50;5.00;;;;;;;2.64;88.33;99371.69;5055603;28;20036;-77
2021/04/12 05:08:00;;;;;;;6.35;4.47;;;;;;;2.67;87.84;99387.44;5054467;28;20028;-74
2021/04/12 05:10:46;;;;;;;7.18;4.57;;;;;;;2.70;87.71;99397.88;5062936;28;20047;-77
2021/04/12 05:13:49;;;;;;;9.32;4.60;;;;;;;2.78;87.42;99400.69;5073254;28;20025;-74
2021/04/12 05:16:44;;;;;;;9.55;4.68;;;;;;;2.77;87.35;99395.47;5075843;28;20024;-75
2021/04/12 05:19:34;;;;;;;8.82;4.70;;;;;;;2.80;87.30;99406.75;5051339;28;20505;-78
2021/04/12 05:22:25;;;;;;;6.75;4.80;;;;;;;2.86;86.64;99426.72;5053085;28;20128;-74
2021/04/12 05:24:57;;;;;;;6.95;4.53;;;;;;;2.82;86.23;99420.78;5053516;28;20029;-75
2021/04/12 05:27:44;;;;;;;7.80;4.95;;;;;;;2.86;87.10;99434.75;5065437;28;20021;-77
2021/04/12 05:30:45;;;;;;;8.90;4.68;;;;;;;2.82;87.00;99419.94;5060320;28;20016;-77
2021/04/12 05:33:32;;;;;;;8.00;4.47;;;;;;;2.77;86.99;99431.06;5064884;28;20391;-72
2021/04/12 05:36:26;;;;;;;10.43;4.50;;;;;;;2.80;87.02;99430.81;5060187;28;20028;-74
2021/04/12 05:39:10;;;;;;;10.82;4.43;;;;;;;2.78;87.19;99437.25;5064697;28;20052;-75
2021/04/12 05:42:07;;;;;;;11.52;5.07;;;;;;;2.74;86.72;99425.16;5060309;28;20021;-75
2021/04/12 05:44:41;;;;;;;9.52;5.32;;;;;;;2.77;87.51;99448.91;5063997;28;20073;-77
2021/04/12 05:47:31;;;;;;;10.00;5.45;;;;;;;2.78;87.46;99445.28;5066766;28;20117;-75
2021/04/12 05:50:27;;;;;;;9.75;5.18;;;;;;;2.89;87.22;99461.19;5053309;28;20025;-74
2021/04/12 05:53:06;;;;;;;8.40;5.35;;;;;;;2.91;87.69;99455.69;5060383;28;20031;-75
2021/04/12 05:55:37;;;;;;;7.82;5.45;;;;;;;2.89;86.63;99455.00;5052438;28;20040;-74
2021/04/12 05:58:48;;;;;;;9.88;5.60;;;;;;;3.06;86.52;99451.63;5064693;28;20025;-75
2021/04/12 06:01:26;;;;;;;9.57;5.30;;;;;;;3.11;86.64;99452.06;5052067;28;20051;-76
2021/04/12 06:04:14;;;;;;;8.45;5.38;;;;;;;3.23;86.83;99458.97;5054672;28;20029;-75
2021/04/12 06:07:04;;;;;;;7.93;5.53;;;;;;;3.26;85.87;99474.72;5063838;28;20029;-73
2021/04/12 06:09:34;;;;;;;;;;;;;;;3.37;86.36;99480.94;5068462;28;20024;-71
2021/04/12 06:12:25;;;;;;;7.55;5.35;;;;;;;3.38;86.14;99475.44;5057533;28;19919;-77
2021/04/12 06:15:29;;;;;;;8.20;5.63;;;;;;;3.38;85.85;99483.47;5059210;28;20522;-78
2021/04/12 06:18:26;;;;;;;9.82;6.07;;;;;;;3.42;85.56;99481.34;5067599;28;20025;-76
2021/04/12 06:21:26;;;;;;;7.13;5.30;;;;;;;3.38;85.84;99501.31;5070043;28;20036;-75
2021/04/12 06:24:16;;;;;;;9.02;5.90;;;;;;;3.53;86.02;99502.59;5000356;28;20112;-73
2021/04/12 06:27:05;;;;;;;9.10;5.68;;;;;;;3.67;85.32;99488.81;5061959;28;20059;-76
2021/04/12 06:30:02;;;;;;;9.05;6.00;;;;;;;3.76;85.38;99496.97;5056720;28;20256;-78
2021/04/12 06:33:08;;;;;;;7.80;5.50;;;;;;;3.81;84.30;99516.94;5058172;28;20111;-71
2021/04/12 06:35:52;;;;;;;9.35;5.95;;;;;;;3.93;84.56;99514.97;5066734;28;20040;-76
2021/04/12 06:38:39;;;;;;;10.32;5.28;;;;;;;4.04;84.97;99517.47;5051529;28;20082;-70
2021/04/12 06:41:36;;;;;;;8.32;5.50;;;;;;;4.32;83.70;99518.41;5053773;28;20534;-76
2021/04/12 06:44:23;;;;;;;8.00;5.63;;;;;;;4.53;82.79;99526.22;5057184;28;20105;-74
2021/04/12 06:47:15;;;;;;;8.02;5.65;;;;;;;4.28;82.21;99530.38;5067733;28;20115;-70
2021/04/12 06:50:07;;;;;;;8.10;5.57;;;;;;;4.47;83.05;99531.31;5063757;28;20112;-71
2021/04/12 06:52:48;;;;;;;9.20;6.47;;;;;;;4.68;83.09;99531.94;5062918;28;20056;-70
2021/04/12 06:55:19;;;;;;;12.18;6.65;;;;;;;4.87;81.93;99536.34;5057390;28;20033;-71
2021/04/12 06:58:00;;;;;;;10.07;6.13;;;;;;;4.80;80.81;99544.16;5076001;28;20036;-73
2021/04/12 07:00:56;;;;;;;8.90;6.45;;;;;;;4.90;79.64;99546.81;5073106;28;20092;-70
2021/04/12 07:04:04;;;;;;;11.88;6.50;;;;;;;4.82;80.94;99550.22;5073897;28;20028;-71
2021/04/12 07:06:58;;;;;;;13.82;7.55;;;;;;;4.70;80.87;99543.34;5076496;28;20074;-71
2021/04/12 07:09:59;;;;;;;14.23;7.97;;;;;;;4.80;80.11;99562.09;5071433;28;20037;-71
2021/04/12 07:13:02;;;;;;;12.10;8.05;;;;;;;4.76;79.94;99549.97;5075148;28;20424;-70
2021/04/12 07:15:36;;;;;;;12.88;7.90;;;;;;;4.77;79.83;99557.03;5058461;28;20024;-72
2021/04/12 07:18:45;;;;;;;16.10;8.52;;;;;;;4.83;80.72;99557.28;5067848;28;20028;-72
2021/04/12 07:21:26;;;;;;;;;;;;;;;4.80;79.31;99556.72;5062256;28;20028;-73
2021/04/12 07:24:13;;;;;;;13.35;7.93;;;;;;;4.65;80.41;99564.41;5055369;28;19917;-73
2021/04/12 07:27:15;;;;;;;12.95;9.10;;;;;;;4.66;80.36;99565.25;5075203;28;20537;-73
2021/04/12 07:30:08;;;;;;;13.70;8.57;;;;;;;4.65;79.27;99577.81;5065670;28;20060;-74
2021/04/12 07:32:55;;;;;;;15.98;9.23;;;;;;;4.75;79.65;99570.56;5074147;28;20025;-70
2021/04/12 07:35:59;;;;;;;18.15;9.45;;;;;;;4.66;79.85;99581.31;5069828;28;20538;-72
2021/04/12 07:39:02;;;;;;;16.98;8.85;;;;;;;4.75;80.04;99581.28;5074404;28;20021;-75
2021/04/12 07:41:58;;;;;;;15.30;9.07;;;;;;;4.89;80.07;99590.69;5067592;28;20035;-69
2021/04/12 07:44:27;;;;;;;15.93;9.63;;;;;;;5.01;79.55;99586.00;5072980;28;20470;-70
2021/04/12 07:47:09;;;;;;;14.18;9.00;;;;;;;4.98;78.84;99592.50;5078645;28;20032;-69
2021/04/12 07:49:53;;;;;;;13.25;9.02;;;;;;;4.99;79.21;99594.16;5083514;28;20012;-73
2021/04/12 07:55:01;;;;;;;15.68;9.98;;;;;;;5.18;78.79;99609.31;5101880;28;20458;-72
2021/04/12 07:57:38;;;;;;;16.15;9.68;;;;;;;5.40;78.02;99608.09;5109619;28;20031;-73
2021/04/12 08:00:42;;;;;;;15.32;10.68;;;;;;;5.49;77.60;99607.16;5105716;28;20035;-70
2021/04/12 08:03:16;;;;;;;15.75;10.50;;;;;;;5.71;77.17;99611.28;5084470;28;20032;-71
2021/04/12 08:05:55;;;;;;;14.98;9.65;;;;;;;5.92;77.25;99627.09;5087306;28;20027;-73
2021/04/12 08:09:03;;;;;;;10.13;7.25;;;;;;;6.26;75.14;99629.09;5083258;28;20023;-71
2021/04/12 08:11:47;;;;;;;13.95;9.35;;;;;;;6.41;74.00;99634.75;5087349;28;20524;-69
2021/04/12 08:14:49;;;;;;;14.35;9.05;;;;;;;6.63;73.69;99643.31;5083137;28;20017;-69
2021/04/12 08:17:37;;;;;;;15.32;9.60;;;;;;;6.84;72.87;99640.25;5093742;28;20035;-72
2021/04/12 08:20:40;;;;;;;15.50;8.98;;;;;;;6.88;70.55;99636.25;5085510;28;20081;-75
2021/04/12 08:23:47;;;;;;;13.88;8.68;;;;;;;6.80;71.55;99619.06;5086143;28;20453;-72
2021/04/12 08:26:21;;;;;;;13.68;8.75;;;;;;;6.84;71.52;99643.81;5081512;28;20035;-74
2021/04/12 08:29:17;;;;;;;12.02;8.02;;;;;;;6.78;71.23;99647.09;5089343;28;20040;-73
2021/04/12 08:32:00;;;;;;;10.80;8.18;;;;;;;7.01;71.12;99623.19;5075356;28;20035;-76
2021/04/12 08:35:02;;;;;;;16.20;8.60;;;;;;;7.15;70.59;99645.97;5090222;28;20012;-72
2021/04/12 08:38:05;;;;;;;13.18;7.72;;;;;;;7.20;68.64;99649.03;5089689;28;20386;-72
2021/04/12 08:40:55;;;;;;;11.95;8.20;;;;;;;7.35;68.12;99649.25;5079164;28;20022;-74
2021/04/12 08:43:48;;;;;;;12.82;8.35;;;;;;;7.52;68.46;99644.78;5081305;28;20035;-72
2021/04/12 08:46:33;;;;;;;14.55;7.85;;;;;;;7.80;67.30;99626.50;5084143;28;20028;-69
2021/04/12 08:49:01;;;;;;;16.08;8.95;;;;;;;7.71;67.76;99647.22;5074035;28;20029;-72
2021/04/12 08:52:02;;;;;;;15.85;8.77;;;;;;;7.56;67.55;99646.16;5078600;28;20043;-73
2021/04/12 08:54:49;;;;;;;12.13;7.35;;;;;;;7.52;67.08;99645.66;5073605;28;20047;-70
2021/04/12 08:57:58;;;;;;;10.50;7.38;;;;;;;7.93;65.38;99653.81;5079335;28;20045;-69
2021/04/12 09:01:08;;;;;;;12.67;6.87;;;;;;;7.97;65.51;99659.75;5067903;28;20035;-73
2021/04/12 09:04:11;;;;;;;10.60;6.50;;;;;;;7.68;64.85;99661.00;5086321;28;20055;-73
2021/04/12 09:06:39;;;;;;;13.50;6.35;;;;;;;7.40;65.59;99668.47;5087423;28;20028;-75
2021/04/12 09:09:35;;;;;;;9.25;6.07;;;;;;;7.42;65.55;99666.47;5089032;28;20021;-72
2021/04/12 09:12:08;;;;;;;10.50;6.30;;;;;;;7.46;66.11;99673.19;5077744;28;20504;-73
2021/04/12 09:15:01;;;;;;;10.93;5.93;;;;;;;7.40;65.12;99673.84;5085810;28;20099;-72
2021/04/12 09:17:39;;;;;;;11.35;6.05;;;;;;;7.64;64.03;99682.03;5089742;28;20053;-74
2021/04/12 09:20:14;;;;;;;7.20;5.13;;;;;;;7.54;63.08;99667.84;5083093;28;20079;-73
2021/04/12 09:23:07;;;;;;;5.88;4.60;;;;;;;7.54;63.18;99684.00;5078758;28;20043;-72
2021/04/12 09:26:08;;;;;;;12.52;5.53;;;;;;;7.59;63.67;99683.53;5080575;28;20081;-80
2021/04/12 09:28:51;;;;;;;7.38;5.03;;;;;;;7.61;62.92;99682.34;5075476;28;20024;-78
2021/04/12 09:31:26;;;;;;;9.40;5.18;;;;;;;7.79;63.01;99674.16;5089397;28;20496;-74
2021/04/12 09:34:04;;;;;;;7.63;4.68;;;;;;;8.13;62.55;99687.53;5085336;28;20105;-72
2021/04/12 09:37:06;;;;;;;8.70;4.53;;;;;;;8.38;61.65;99690.25;5090228;28;20385;-74
2021/04/12 09:39:50;;;;;;;5.78;3.92;;;;;;;8.59;59.30;99691.66;5090804;28;20046;-75
2021/04/12 09:42:50;;;;;;;7.00;4.50;;;;;;;8.36;59.81;99686.91;5088047;28;20544;-76
2021/04/12 09:45:47;;;;;;;6.28;3.80;;;;;;;8.93;58.55;99696.84;5075724;28;20040;-77
2021/04/12 09:48:40;;;;;;;6.97;3.42;;;;;;;9.31;55.06;99697.13;5089153;28;20027;-74
2021/04/12 09:51:43;;;;;;;8.82;3.55;;;;;;;10.28;54.31;99706.66;5088514;28;20032;-72
2021/04/12 09:54:29;;;;;;;5.82;3.45;;;;;;;10.60;53.63;99709.31;5082574;28;20034;-74
2021/04/12 09:57:13;;;;;;;6.65;4.22;;;;;;;10.45;54.57;99701.13;5083854;28;20085;-72
2021/04/12 09:59:56;;;;;;;6.78;3.53;;;;;;;9.75;52.69;99710.16;5089644;28;20030;-72
2021/04/12 10:02:54;;;;;;;5.47;3.30;;;;;;;9.58;54.68;99701.25;5081063;28;20075;-71
2021/04/12 10:05:47;;;;;;;6.28;2.80;;;;;;;9.54;52.98;99705.34;5085538;28;20047;-74
2021/04/12 10:08:36;;;;;;;6.05;3.20;;;;;;;9.78;52.73;99702.50;5086547;28;20028;-76
2021/04/12 10:11:15;;;;;;;6.85;2.20;;;;;;;9.56;51.15;99708.69;5086279;28;20035;-72
2021/04/12 10:13:46;;;;;;;4.53;2.58;;;;;;;9.29;52.87;99709.97;5087774;28;20472;-71
2021/04/12 10:16:19;;;;;;;6.32;2.90;;;;;;;9.17;53.15;99715.72;5084510;28;20040;-67
2021/04/12 10:18:47;;;;;;;4.13;2.75;;;;;;;9.15;53.04;99728.56;5087356;28;20028;-79
2021/04/12 10:21:18;;;;;;;3.78;2.10;;;;;;;9.46;51.58;99727.81;5091825;28;20025;-78
2021/04/12 10:23:50;;;;;;;4.30;2.80;;;;;;;10.58;50.36;99717.59;5089052;28;20119;-74
2021/04/12 10:26:38;;;;;;;3.85;2.80;;;;;;;12.37;48.51;99711.22;5088909;28;20106;-66
2021/04/12 10:29:17;;;;;;;6.00;3.20;;;;;;;12.45;47.17;99721.09;5083124;28;20032;-69
2021/04/12 10:31:54;;;;;;;4.95;2.60;;;;;;;11.48;47.65;99719.47;5077065;28;20072;-69
2021/04/12 10:34:34;;;;;;;4.30;2.28;;;;;;;11.19;48.38;99720.28;5086991;28;20185;-70
2021/04/12 10:37:26;;;;;;;4.05;1.70;;;;;;;11.17;46.44;99725.03;5074839;28;20032;-70
2021/04/12 10:39:54;;;;;;;6.25;1.83;;;;;;;11.32;46.17;99728.63;5072279;28;20066;-70
2021/04/12 10:42:38;;;;;;;4.22;1.52;;;;;;;11.43;44.99;99719.19;5071072;28;20046;-70
2021/04/12 10:45:27;;;;;;;2.33;1.30;;;;;;;11.33;44.52;99722.16;5073772;28;20047;-69
2021/04/12 10:48:06;;;;;;;2.33;1.80;;;;;;;11.09;45.89;99715.13;5088743;28;20708;-72
2021/04/12 10:50:52;;;;;;;4.78;1.90;;;;;;;10.72;45.97;99724.09;5083329;28;20029;-69
2021/04/12 10:53:26;;;;;;;5.75;1.67;;;;;;;10.94;46.47;99730.50;5072763;28;20111;-69
2021/04/12 10:56:22;;;;;;;1.80;1.35;;;;;;;10.62;46.25;99729.75;5086550;28;20036;-69
2021/04/12 10:59:38;;;;;;;4.63;1.90;;;;;;;11.47;46.10;99723.19;5070049;28;20167;-69
2021/04/12 11:02:41;;;;;;;3.15;1.70;;;;;;;11.19;45.63;99728.41;5045902;28;20037;-73
2021/04/12 11:05:13;;;;;;;4.25;2.20;;;;;;;11.40;45.12;99728.53;5077202;28;20107;-71
2021/04/12 11:07:51;;;;;;;3.28;1.77;;;;;;;11.99;44.88;99727.66;5088348;28;20032;-72
2021/04/12 11:10:52;;;;;;;3.70;1.85;;;;;;;11.71;43.80;99723.94;5090081;28;20401;-74
2021/04/12 11:13:31;;;;;;;3.75;1.50;;;;;;;12.26;44.39;99712.56;5069689;28;20028;-70
2021/04/12 11:16:21;;;;;;;3.10;1.23;;;;;;;13.08;41.57;99719.38;5083845;28;20027;-72
2021/04/12 11:19:18;;;;;;;3.65;1.48;;;;;;;12.35;42.06;99724.13;5069855;28;20094;-74
2021/04/12 11:21:53;;;;;;;3.80;1.70;;;;;;;12.03;45.43;99725.44;5074518;28;20108;-73
2021/04/12 11:24:32;;;;;;;3.85;1.90;;;;;;;12.31;43.43;99728.25;5088588;28;20032;-77
2021/04/12 11:27:07;;;;;;;3.78;1.30;;;;;;;12.58;42.86;99723.94;5081239;28;20701;-73
2021/04/12 11:29:36;;;;;;;6.00;1.58;;;;;;;12.47;41.39;99716.28;5069834;28;20394;-73
2021/04/12 11:32:20;;;;;;;4.18;1.45;;;;;;;12.27;42.20;99719.66;5089380;28;20032;-73
2021/04/12 11:35:01;;;;;;;4.68;1.75;;;;;;;14.63;40.36;99715.31;5089093;28;20496;-73
2021/04/12 11:37:49;;;;;;;4.35;1.40;;;;;;;15.85;37.28;99704.97;5080888;28;20389;-73
2021/04/12 11:40:29;;;;;;;3.17;1.23;;;;;;;15.81;38.27;99711.06;5090453;28;20055;-73
2021/04/12 11:42:59;;;;;;;4.88;1.45;;;;;;;14.81;39.31;99703.81;5073685;28;20541;-71
2021/04/12 11:45:38;;;;;;;2.85;1.35;;;;;;;13.43;39.43;99708.56;5072267;28;20024;-76
2021/04/12 11:48:17;;;;;;;2.45;1.50;;;;;;;12.91;41.66;99712.53;5076310;28;20095;-74
2021/04/12 11:50:54;;;;;;;7.95;1.73;;;;;;;11.88;42.37;99717.31;5093459;28;20028;-72
2021/04/12 11:53:47;;;;;;;2.38;1.30;;;;;;;11.18;42.99;99724.84;5092213;28;20477;-74
2021/04/12 11:56:24;;;;;;;2.60;1.40;;;;;;;10.64;46.31;99724.16;5089998;28;20441;-76
2021/04/12 11:59:12;;;;;;;2.25;1.60;;;;;;;10.40;46.98;99725.16;5080011;28;20024;-71
2021/04/12 12:01:52;;;;;;;2.60;1.50;;;;;;;10.30;46.57;99728.13;5072161;28;20028;-70
2021/04/12 12:04:37;;;;;;;6.35;1.60;;;;;;;10.11;46.68;99734.78;5084841;28;20024;-70
2021/04/12 12:07:17;;;;;;;3.08;1.50;;;;;;;11.21;46.20;99728.22;5086416;28;20486;-70
2021/04/12 12:10:11;;;;;;;2.78;1.55;;;;;;;12.83;41.89;99729.81;5091919;28;20748;-70
2021/04/12 12:13:01;;;;;;;2.97;1.70;;;;;;;14.18;39.44;99720.44;5085126;28;20028;-70
2021/04/12 12:15:37;;;;;;;3.30;1.75;;;;;;;13.52;39.38;99718.25;5074509;28;20082;-70
2021/04/12 12:18:09;;;;;;;3.60;1.83;;;;;;;12.73;38.38;99723.84;5080134;28;20039;-70
2021/04/12 12:20:53;;;;;;;5.32;1.75;;;;;;;13.01;39.71;99728.50;5076878;28;20067;-70
2021/04/12 12:23:19;;;;;;;4.88;1.70;;;;;;;13.54;38.04;99720.75;5072675;28;20082;-70
2021/04/12 12:25:48;;;;;;;3.22;1.55;;;;;;;13.36;37.17;99722.13;5091586;28;20020;-70
2021/04/12 12:28:32;;;;;;;;;;;;;;;13.81;36.07;99717.16;5078860;28;20612;-70
2021/04/12 12:34:01;;;;;;;3.53;1.70;;;;;;;16.08;32.79;99707.16;5072399;28;20509;-70
2021/04/12 12:36:44;;;;;;;1.25;0.90;;;;;;;15.85;30.58;99712.28;5081944;28;20024;-70
2021/04/12 12:39:14;;;;;;;2.70;1.00;;;;;;;16.29;32.35;99714.19;5073003;28;20143;-70
2021/04/12 12:41:44;;;;;;;6.05;1.10;;;;;;;15.80;32.82;99717.53;5088891;28;20044;-70
2021/04/12 12:44:13;;;;;;;1.58;1.00;;;;;;;14.86;33.29;99716.81;5077374;28;20024;-70
2021/04/12 12:46:41;;;;;;;2.08;0.88;;;;;;;14.29;35.53;99723.59;5082211;28;20511;-70
2021/04/12 12:49:13;;;;;;;2.15;1.10;;;;;;;13.05;37.29;99718.94;5085618;28;20027;-70
2021/04/12 12:51:48;;;;;;;2.78;1.30;;;;;;;12.21;41.14;99725.03;5079954;28;20020;-70
2021/04/12 12:54:23;;;;;;;4.72;1.25;;;;;;;10.92;41.83;99740.66;5088992;28;20020;-70
2021/04/12 12:56:50;;;;;;;2.05;1.30;;;;;;;10.38;43.59;99746.16;5079788;28;20023;-70
2021/04/12 12:59:25;;;;;;;4.18;1.35;;;;;;;10.35;43.53;99741.09;5088266;28;20530;-70
2021/04/12 13:01:53;;;;;;;2.15;1.30;;;;;;;11.41;41.57;99749.16;5072629;28;20056;-70
2021/04/12 13:04:24;;;;;;;2.55;1.40;;;;;;;12.42;38.35;99727.75;5070992;28;20028;-70
2021/04/12 13:07:10;;;;;;;2.97;1.35;;;;;;;12.53;39.27;99717.41;5073602;28;20024;-70
2021/04/12 13:09:38;;;;;;;4.15;1.35;;;;;;;14.19;37.07;99708.50;5075991;28;20024;-70
2021/04/12 13:12:15;;;;;;;2.45;1.30;;;;;;;15.34;34.82;99730.22;5080691;28;20028;-70
2021/04/12 13:14:51;;;;;;;5.15;1.48;;;;;;;15.89;33.59;99736.22;5082239;28;20029;-70